Dati Storici

Data ora Umidita' aria (%) Temperatura aria (°C) Rad globale (W/m²) Gonioanemometro (°) Tacoanemometro (m/s) Pioggia (mm)
28-06-2020 19:30 62.7 % 28.023 116.853 1.17 0 0
28-06-2020 19:20 62.7 % 28.126 99.477 -0.04 0 0
28-06-2020 19:10 62.3 % 28.004 105.847 1.972 0 0
28-06-2020 19:00 62.2 % 28.12 146.47 0.69 0 0
28-06-2020 18:50 63.1 % 28.358 123.971 3.568 0 0
28-06-2020 18:40 61.9 % 28.302 142.601 1.993 0 0
28-06-2020 18:30 63.9 % 28.551 107.617 1.388 0 0
28-06-2020 18:20 63.6 % 28.667 75.264 1.211 0 0
28-06-2020 18:10 64.2 % 28.704 124.925 1.544 0 0
28-06-2020 18:00 63.6 % 28.624 100.646 2.64 0 0
28-06-2020 17:50 62.5 % 28.749 119.242 0.253 0 0
28-06-2020 17:40 62.9 % 28.579 39.784 3.287 0 0
28-06-2020 17:30 62.7 % 28.644 96.387 2.226 0 0
28-06-2020 17:20 63.9 % 28.66 163.448 0.922 0 0
28-06-2020 17:10 63.3 % 28.977 91.765 1.429 0 0
28-06-2020 17:00 64.6 % 28.803 99.551 1.373 0 0
28-06-2020 16:50 61.9 % 28.894 87.983 2.499 0 0
28-06-2020 16:40 58.7 % 29.221 112.822 3.244 0 0
28-06-2020 16:30 59.4 % 29.815 105.101 2.552 0 0
28-06-2020 16:20 62.1 % 29.158 105.504 3.281 0 0

I dati sono presentati in modo automatico a scopo informativo. In seguito a verifica i dati possono subire modifiche o essere invalidati e non riportati negli archivi definitivi.